Time;durP1;ratioP1;P1;durP2;ratioP2;P2;SDS_P1;SDS_P2;PMS_P1;PMS_P2;Temp;Humidity;BMP_temperature;BMP_pressure;BME280_temperature;BME280_humidity;BME280_pressure;Samples;Min_cycle;Max_cycle;Signal;HPM_P1;HPM_P2
2022/07/22 00:01:01;;;;;;;2.80;2.40;;;19.90;85.30;;;;;;5115913;27;20020;-58
2022/07/22 00:03:26;;;;;;;3.17;2.30;;;19.90;85.20;;;;;;5111185;27;20479;-58
2022/07/22 00:05:52;;;;;;;3.38;2.55;;;19.90;85.30;;;;;;5098416;27;20038;-58
2022/07/22 00:08:18;;;;;;;2.78;2.42;;;19.80;85.20;;;;;;5120831;27;20019;-58
2022/07/22 00:10:43;;;;;;;2.55;2.35;;;19.80;85.40;;;;;;5101819;27;20479;-58
2022/07/22 00:13:09;;;;;;;3.15;2.63;;;19.80;85.40;;;;;;5111615;27;20031;-58
2022/07/22 00:15:35;;;;;;;2.83;2.50;;;19.80;85.40;;;;;;5098488;28;20033;-58
2022/07/22 00:18:00;;;;;;;4.85;2.80;;;19.80;85.50;;;;;;5107782;27;20036;-58
2022/07/22 00:20:26;;;;;;;3.00;2.70;;;19.80;85.60;;;;;;5116635;27;20032;-58
2022/07/22 00:22:52;;;;;;;2.90;2.40;;;19.80;85.80;;;;;;5107660;27;20028;-58
2022/07/22 00:25:18;;;;;;;3.05;2.58;;;19.80;85.90;;;;;;5107857;27;20027;-58
2022/07/22 00:27:43;;;;;;;2.60;2.40;;;19.70;85.90;;;;;;5111525;27;20028;-58
2022/07/22 00:30:10;;;;;;;2.65;2.40;;;19.70;86.10;;;;;;5120697;27;20019;-58
2022/07/22 00:32:36;;;;;;;3.55;2.50;;;19.70;86.10;;;;;;5112645;27;20020;-58
2022/07/22 00:35:01;;;;;;;2.58;2.30;;;19.70;86.10;;;;;;5106964;27;20035;-58
2022/07/22 00:37:27;;;;;;;2.90;2.60;;;19.70;86.20;;;;;;5117851;27;20077;-58
2022/07/22 00:39:53;;;;;;;4.15;2.85;;;19.70;86.20;;;;;;5108902;27;20039;-57
2022/07/22 00:42:18;;;;;;;2.97;2.42;;;19.70;86.20;;;;;;5118960;27;20023;-58
2022/07/22 00:44:45;;;;;;;3.05;2.72;;;19.70;86.10;;;;;;5111299;27;20031;-58
2022/07/22 00:47:11;;;;;;;2.45;2.22;;;19.70;86.20;;;;;;5119527;27;20031;-57
2022/07/22 00:49:37;;;;;;;3.30;3.00;;;19.70;86.10;;;;;;5107201;27;20383;-58
2022/07/22 00:52:04;;;;;;;2.95;2.65;;;19.70;86.40;;;;;;5106721;27;20027;-58
2022/07/22 00:54:30;;;;;;;2.65;2.45;;;19.70;87.00;;;;;;5109792;27;20433;-58
2022/07/22 00:56:55;;;;;;;3.47;2.50;;;19.70;86.30;;;;;;5110770;27;20383;-58
2022/07/22 00:59:21;;;;;;;2.63;2.40;;;19.70;86.50;;;;;;5107413;27;20035;-58
2022/07/22 01:01:47;;;;;;;3.38;2.80;;;19.70;86.60;;;;;;5111518;27;20291;-58
2022/07/22 01:04:13;;;;;;;3.35;2.40;;;19.70;86.70;;;;;;5114906;27;20167;-57
2022/07/22 01:06:39;;;;;;;3.90;3.03;;;19.70;86.80;;;;;;5104419;27;20053;-58
2022/07/22 01:09:04;;;;;;;2.97;2.67;;;19.70;86.70;;;;;;5106504;27;20056;-58
2022/07/22 01:11:30;;;;;;;3.90;2.95;;;19.60;86.80;;;;;;5107349;28;20055;-58
2022/07/22 01:13:57;;;;;;;3.17;2.88;;;19.60;86.60;;;;;;5112612;27;20016;-58
2022/07/22 01:16:23;;;;;;;3.10;2.67;;;19.60;86.70;;;;;;5116441;27;20482;-58
2022/07/22 01:18:49;;;;;;;2.70;2.40;;;19.60;86.80;;;;;;5109019;27;20032;-57
2022/07/22 01:21:16;;;;;;;3.45;2.63;;;19.60;86.80;;;;;;5106575;27;20478;-57
2022/07/22 01:23:44;;;;;;;2.97;2.30;;;19.60;87.50;;;;;;5107694;27;20020;-58
2022/07/22 01:26:09;;;;;;;3.35;2.60;;;19.60;87.00;;;;;;5118323;27;20024;-58
2022/07/22 01:28:35;;;;;;;3.72;2.90;;;19.60;87.00;;;;;;5094535;28;20042;-58
2022/07/22 01:31:01;;;;;;;3.33;2.72;;;19.60;87.10;;;;;;5112647;27;20102;-58
2022/07/22 01:33:26;;;;;;;3.25;2.95;;;19.60;86.90;;;;;;5112505;28;20027;-58
2022/07/22 01:35:52;;;;;;;3.83;2.65;;;19.60;87.00;;;;;;5112883;27;20406;-58
2022/07/22 01:38:19;;;;;;;3.15;2.85;;;19.60;87.00;;;;;;5107597;27;20080;-58
2022/07/22 01:40:45;;;;;;;3.05;2.60;;;19.60;86.80;;;;;;5100586;27;20439;-57
2022/07/22 01:43:11;;;;;;;3.47;2.83;;;19.60;86.80;;;;;;5093828;28;20106;-57
2022/07/22 01:45:37;;;;;;;3.17;2.75;;;19.60;86.80;;;;;;5114786;27;20411;-58
2022/07/22 01:48:03;;;;;;;2.65;2.42;;;19.60;86.90;;;;;;5105740;27;20023;-58
2022/07/22 01:50:29;;;;;;;2.60;2.40;;;19.60;86.90;;;;;;5111312;27;20126;-58
2022/07/22 01:52:55;;;;;;;2.60;2.30;;;19.50;86.80;;;;;;5115565;27;20044;-58
2022/07/22 01:55:21;;;;;;;3.13;2.72;;;19.50;86.70;;;;;;5103137;27;20066;-57
2022/07/22 01:57:46;;;;;;;3.22;2.58;;;19.50;86.90;;;;;;5118073;27;20024;-58
2022/07/22 02:00:13;;;;;;;3.53;3.00;;;19.50;86.80;;;;;;5104620;27;20446;-58
2022/07/22 02:02:38;;;;;;;3.13;2.58;;;19.40;86.90;;;;;;5105519;27;20031;-58
2022/07/22 02:05:05;;;;;;;3.08;2.50;;;19.50;87.10;;;;;;5112774;27;20433;-58
2022/07/22 02:07:32;;;;;;;5.32;2.63;;;19.40;87.10;;;;;;5111631;28;20080;-58
2022/07/22 02:09:58;;;;;;;2.97;2.55;;;19.40;87.10;;;;;;5106463;27;20031;-58
2022/07/22 02:12:24;;;;;;;2.85;2.55;;;19.40;87.30;;;;;;5118434;27;20585;-58
2022/07/22 02:14:50;;;;;;;2.78;2.58;;;19.40;87.60;;;;;;5106115;27;20027;-56
2022/07/22 02:17:16;;;;;;;3.90;2.67;;;19.30;87.40;;;;;;5108835;27;20480;-58
2022/07/22 02:19:42;;;;;;;4.03;3.17;;;19.30;87.50;;;;;;5102490;27;20511;-58
2022/07/22 02:22:08;;;;;;;2.95;2.58;;;19.30;87.50;;;;;;5103958;27;20216;-58
2022/07/22 02:24:34;;;;;;;3.20;2.65;;;19.30;87.50;;;;;;5118761;27;20050;-58
2022/07/22 02:27:01;;;;;;;3.47;2.80;;;19.30;87.80;;;;;;5099704;27;20056;-58
2022/07/22 02:29:26;;;;;;;3.35;2.55;;;19.30;87.90;;;;;;5103879;27;20035;-58
2022/07/22 02:31:52;;;;;;;4.35;3.20;;;19.30;88.00;;;;;;5110927;27;20015;-58
2022/07/22 02:34:18;;;;;;;3.63;2.60;;;19.30;88.00;;;;;;5111358;27;20030;-58
2022/07/22 02:36:43;;;;;;;2.97;2.67;;;19.30;88.00;;;;;;5119373;27;20031;-58
2022/07/22 02:39:09;;;;;;;3.45;2.60;;;19.30;87.90;;;;;;5114474;27;20102;-58
2022/07/22 02:41:35;;;;;;;4.10;2.97;;;19.30;88.10;;;;;;5101698;27;20020;-58
2022/07/22 02:44:01;;;;;;;3.65;2.83;;;19.40;88.10;;;;;;5098332;27;20395;-58
2022/07/22 02:46:31;;;;;;;3.25;2.78;;;19.30;87.90;;;;;;5123095;27;20096;-58
2022/07/22 02:48:57;;;;;;;4.07;3.15;;;19.30;87.90;;;;;;5110452;27;20463;-58
2022/07/22 02:51:23;;;;;;;3.30;2.80;;;19.30;87.90;;;;;;5104987;28;20036;-57
2022/07/22 02:53:49;;;;;;;4.10;2.70;;;19.40;87.90;;;;;;5108744;27;20483;-58
2022/07/22 02:56:15;;;;;;;2.83;2.47;;;19.40;88.00;;;;;;5102734;27;20024;-58
2022/07/22 02:58:42;;;;;;;4.35;2.90;;;19.40;88.00;;;;;;5118158;27;20020;-58
2022/07/22 03:01:08;;;;;;;3.67;2.78;;;19.40;87.90;;;;;;5107440;28;20015;-58
2022/07/22 03:03:33;;;;;;;2.55;2.33;;;19.40;87.60;;;;;;5104556;28;20478;-58
2022/07/22 03:05:59;;;;;;;4.10;3.33;;;19.50;88.00;;;;;;5104064;28;20042;-58
2022/07/22 03:08:25;;;;;;;3.50;2.70;;;19.40;87.90;;;;;;5109516;28;20023;-58
2022/07/22 03:10:51;;;;;;;3.28;2.85;;;19.40;87.80;;;;;;5111291;28;20027;-58
2022/07/22 03:13:17;;;;;;;4.63;2.85;;;19.50;87.80;;;;;;5111238;28;20106;-57
2022/07/22 03:15:43;;;;;;;3.47;2.78;;;19.50;87.90;;;;;;5099614;28;20107;-58
2022/07/22 03:18:09;;;;;;;2.45;2.25;;;19.60;87.60;;;;;;5110265;28;20027;-56
2022/07/22 03:20:34;;;;;;;2.75;2.50;;;19.60;87.60;;;;;;5102265;28;20074;-58
2022/07/22 03:23:01;;;;;;;3.30;2.95;;;19.70;87.40;;;;;;5114804;28;20028;-58
2022/07/22 03:25:27;;;;;;;3.05;2.75;;;19.80;87.10;;;;;;5113040;27;20032;-58
2022/07/22 03:27:52;;;;;;;3.85;2.92;;;19.80;87.00;;;;;;5110101;28;20042;-57
2022/07/22 03:30:18;;;;;;;3.50;2.78;;;19.80;86.90;;;;;;5115358;27;20383;-58
2022/07/22 03:32:46;;;;;;;4.32;3.08;;;19.90;86.60;;;;;;5103234;27;20472;-58
2022/07/22 03:35:13;;;;;;;3.97;3.15;;;19.90;86.60;;;;;;5117719;27;20026;-58
2022/07/22 03:37:39;;;;;;;4.72;3.20;;;20.00;86.60;;;;;;5113393;27;20024;-58
2022/07/22 03:40:05;;;;;;;5.07;3.05;;;20.10;86.70;;;;;;5108192;27;20039;-58
2022/07/22 03:42:31;;;;;;;4.25;3.40;;;20.20;86.60;;;;;;5104835;27;20373;-58
2022/07/22 03:44:57;;;;;;;4.10;3.03;;;20.30;86.20;;;;;;5118038;27;20110;-57
2022/07/22 03:47:23;;;;;;;3.88;3.10;;;20.40;86.20;;;;;;5115599;27;20074;-58
2022/07/22 03:49:49;;;;;;;4.00;3.13;;;20.50;85.50;;;;;;5114665;27;20024;-58
2022/07/22 03:52:15;;;;;;;4.30;3.30;;;20.60;84.80;;;;;;5104919;27;20011;-58
2022/07/22 03:54:42;;;;;;;5.00;3.65;;;20.60;84.10;;;;;;5105215;27;20097;-58
2022/07/22 03:57:08;;;;;;;3.88;3.47;;;20.70;84.20;;;;;;5119314;27;20031;-58
2022/07/22 03:59:34;;;;;;;4.47;3.40;;;20.70;84.10;;;;;;5106974;27;20376;-58
2022/07/22 04:02:00;;;;;;;5.28;3.33;;;20.90;84.20;;;;;;5112770;27;20030;-58
2022/07/22 04:04:26;;;;;;;3.72;3.10;;;21.10;83.60;;;;;;5120370;27;20105;-58
2022/07/22 04:06:52;;;;;;;5.15;3.83;;;21.30;83.50;;;;;;5111140;27;20028;-58
2022/07/22 04:09:18;;;;;;;3.85;3.20;;;21.60;82.30;;;;;;5112961;27;20038;-58
2022/07/22 04:11:44;;;;;;;4.05;3.03;;;21.80;81.20;;;;;;5123696;27;20071;-58
2022/07/22 04:14:10;;;;;;;3.20;2.90;;;21.90;80.40;;;;;;5116997;27;20020;-58
2022/07/22 04:16:35;;;;;;;3.40;2.97;;;21.90;79.70;;;;;;5112076;27;20440;-58
2022/07/22 04:19:02;;;;;;;3.40;2.90;;;21.80;79.40;;;;;;5104087;27;20406;-58
2022/07/22 04:21:28;;;;;;;3.75;3.20;;;21.70;79.20;;;;;;5109422;27;20126;-59
2022/07/22 04:23:54;;;;;;;4.13;3.30;;;21.60;79.50;;;;;;5118388;27;20062;-59
2022/07/22 04:26:20;;;;;;;3.28;2.92;;;21.50;79.50;;;;;;5115617;27;20046;-57
2022/07/22 04:28:45;;;;;;;5.05;3.30;;;21.40;79.70;;;;;;5109746;27;20015;-58
2022/07/22 04:31:11;;;;;;;3.80;2.95;;;21.30;79.70;;;;;;5109605;28;20028;-59
2022/07/22 04:33:37;;;;;;;3.38;2.85;;;21.20;79.80;;;;;;5108048;27;20479;-58
2022/07/22 04:36:04;;;;;;;3.03;2.72;;;21.10;79.80;;;;;;5110942;27;20107;-59
2022/07/22 04:38:29;;;;;;;4.20;3.30;;;21.10;80.20;;;;;;5116421;27;20533;-58
2022/07/22 04:40:56;;;;;;;4.38;3.40;;;21.00;80.40;;;;;;5112258;27;20027;-58
2022/07/22 04:43:22;;;;;;;3.83;2.78;;;21.00;80.10;;;;;;5107998;27;20032;-57
2022/07/22 04:45:48;;;;;;;3.53;3.03;;;21.00;80.10;;;;;;5120538;27;20012;-58
2022/07/22 04:48:13;;;;;;;3.42;2.90;;;21.00;80.10;;;;;;5115723;27;20387;-58
2022/07/22 04:50:39;;;;;;;5.90;2.90;;;21.00;80.10;;;;;;5103418;27;20046;-59
2022/07/22 04:53:05;;;;;;;4.15;3.35;;;21.00;79.90;;;;;;5114517;27;20586;-58
2022/07/22 04:55:30;;;;;;;3.25;2.95;;;20.90;80.00;;;;;;5110538;27;20061;-58
2022/07/22 04:57:56;;;;;;;3.58;2.92;;;20.90;80.10;;;;;;5105423;27;20035;-58
2022/07/22 05:00:22;;;;;;;3.70;3.30;;;21.00;80.60;;;;;;5112073;27;20031;-58
2022/07/22 05:02:48;;;;;;;3.72;3.22;;;21.00;80.30;;;;;;5105754;27;20040;-58
2022/07/22 05:05:13;;;;;;;3.85;3.33;;;21.00;80.30;;;;;;5112615;27;20019;-58
2022/07/22 05:07:39;;;;;;;3.72;3.17;;;21.00;80.10;;;;;;5107940;28;20031;-58
2022/07/22 05:10:05;;;;;;;4.10;3.20;;;21.00;80.00;;;;;;5101350;27;20436;-58
2022/07/22 05:12:31;;;;;;;3.95;3.33;;;21.10;80.40;;;;;;5126789;27;20031;-58
2022/07/22 05:14:57;;;;;;;3.78;3.35;;;21.20;80.60;;;;;;5117441;27;20489;-58
2022/07/22 05:17:23;;;;;;;4.78;3.40;;;21.40;80.60;;;;;;5105100;27;20032;-58
2022/07/22 05:19:49;;;;;;;4.22;3.15;;;21.70;80.50;;;;;;5102795;27;20528;-58
2022/07/22 05:22:14;;;;;;;3.13;2.83;;;22.00;79.40;;;;;;5111224;27;20042;-58
2022/07/22 05:24:40;;;;;;;4.20;2.90;;;22.20;78.90;;;;;;5124974;27;20066;-58
2022/07/22 05:27:05;;;;;;;6.13;2.75;;;22.30;77.90;;;;;;5115894;27;20483;-58
2022/07/22 05:29:31;;;;;;;4.63;2.85;;;22.40;77.40;;;;;;5114810;27;20024;-58
2022/07/22 05:31:57;;;;;;;3.45;3.10;;;22.50;77.40;;;;;;5103796;27;20162;-58
2022/07/22 05:34:23;;;;;;;5.10;3.42;;;22.70;76.90;;;;;;5097400;28;20117;-58
2022/07/22 05:36:48;;;;;;;5.57;3.42;;;23.00;76.50;;;;;;5099790;27;20023;-59
2022/07/22 05:39:14;;;;;;;5.25;2.97;;;23.10;75.70;;;;;;5098598;27;20016;-58
2022/07/22 05:41:40;;;;;;;2.92;2.67;;;23.10;75.70;;;;;;5096006;27;20425;-58
2022/07/22 05:44:06;;;;;;;4.53;3.10;;;23.20;75.50;;;;;;5110381;27;20031;-58
2022/07/22 05:46:31;;;;;;;3.58;3.28;;;23.20;75.50;;;;;;5104405;27;20031;-58
2022/07/22 05:48:57;;;;;;;3.85;3.25;;;23.10;75.00;;;;;;5114602;27;20023;-58
2022/07/22 05:51:23;;;;;;;3.92;3.53;;;23.10;74.90;;;;;;5114647;27;20056;-58
2022/07/22 05:53:49;;;;;;;3.78;3.22;;;23.00;74.80;;;;;;5080138;28;20024;-58
2022/07/22 05:56:15;;;;;;;3.75;3.25;;;23.00;75.00;;;;;;5108605;27;20379;-58
2022/07/22 05:58:42;;;;;;;3.08;2.78;;;22.90;75.10;;;;;;5099483;27;20129;-58
2022/07/22 06:01:09;;;;;;;4.57;3.05;;;22.90;75.20;;;;;;5109592;28;20491;-59
2022/07/22 06:03:35;;;;;;;3.30;3.00;;;22.80;75.30;;;;;;5098164;27;20094;-58
2022/07/22 06:06:02;;;;;;;3.40;3.05;;;22.90;75.40;;;;;;5101518;27;20161;-58
2022/07/22 06:08:28;;;;;;;3.55;3.00;;;22.90;75.30;;;;;;5107007;28;20134;-58
2022/07/22 06:10:54;;;;;;;3.47;3.00;;;22.80;75.20;;;;;;5100481;28;20024;-59
2022/07/22 06:13:20;;;;;;;4.15;3.50;;;22.80;75.30;;;;;;5101051;27;20032;-59
2022/07/22 06:15:46;;;;;;;3.53;3.20;;;22.80;75.60;;;;;;5092339;28;20023;-59
2022/07/22 06:18:11;;;;;;;3.75;3.30;;;22.80;75.70;;;;;;5092177;28;20028;-59
2022/07/22 06:20:37;;;;;;;4.13;3.13;;;22.80;75.80;;;;;;5091708;28;20395;-59
2022/07/22 06:23:03;;;;;;;4.40;3.33;;;22.80;75.60;;;;;;5075903;28;20399;-59
2022/07/22 06:25:29;;;;;;;3.88;3.20;;;22.80;75.40;;;;;;5098070;27;20113;-59
2022/07/22 06:27:55;;;;;;;3.53;3.20;;;22.90;75.50;;;;;;5097077;27;20035;-59
2022/07/22 06:30:21;;;;;;;3.83;3.47;;;22.90;75.50;;;;;;5092003;27;20027;-58
2022/07/22 06:32:46;;;;;;;4.28;3.53;;;22.90;75.60;;;;;;5096028;27;20053;-60
2022/07/22 06:35:12;;;;;;;4.35;3.50;;;23.00;75.50;;;;;;5087051;27;20031;-59
2022/07/22 06:37:38;;;;;;;3.30;3.00;;;23.00;75.80;;;;;;5090377;27;20042;-60
2022/07/22 06:40:04;;;;;;;3.35;3.00;;;23.10;75.80;;;;;;5092733;27;20035;-58
2022/07/22 06:42:30;;;;;;;3.88;3.00;;;23.20;75.70;;;;;;5092842;28;20054;-59
2022/07/22 06:44:56;;;;;;;4.07;3.30;;;23.20;75.20;;;;;;5086948;28;20114;-58
2022/07/22 06:47:22;;;;;;;4.32;3.35;;;23.40;75.00;;;;;;5090275;28;20044;-59
2022/07/22 06:49:48;;;;;;;4.47;3.60;;;23.40;74.80;;;;;;5088143;28;20023;-59
2022/07/22 06:52:13;;;;;;;3.78;3.25;;;23.50;74.50;;;;;;5088134;28;20039;-59
2022/07/22 06:54:39;;;;;;;3.72;3.30;;;23.50;74.30;;;;;;5084813;28;20092;-57
2022/07/22 06:57:04;;;;;;;5.30;3.30;;;23.50;74.50;;;;;;5081110;28;20035;-58
2022/07/22 06:59:30;;;;;;;3.85;3.20;;;23.60;74.50;;;;;;5096429;28;20046;-59
2022/07/22 07:01:56;;;;;;;3.80;3.15;;;23.60;74.10;;;;;;5083198;28;20115;-59
2022/07/22 07:04:21;;;;;;;4.53;3.47;;;23.70;73.90;;;;;;5088398;28;20495;-58
2022/07/22 07:06:47;;;;;;;4.28;3.45;;;23.70;73.50;;;;;;5084387;28;20031;-59
2022/07/22 07:09:13;;;;;;;3.50;3.17;;;23.80;73.60;;;;;;5084330;28;20043;-59
2022/07/22 07:11:38;;;;;;;4.25;3.35;;;23.90;73.60;;;;;;5093213;28;23048;-58
2022/07/22 07:14:04;;;;;;;3.78;3.40;;;23.90;73.50;;;;;;5091118;28;20046;-57
2022/07/22 07:16:30;;;;;;;4.13;3.42;;;23.90;73.30;;;;;;5071103;28;20031;-58
2022/07/22 07:18:56;;;;;;;3.47;3.17;;;23.90;73.10;;;;;;5091486;28;20058;-58
2022/07/22 07:21:21;;;;;;;4.20;3.20;;;23.90;73.10;;;;;;5085447;28;20054;-58
2022/07/22 07:23:47;;;;;;;3.65;3.30;;;24.00;73.00;;;;;;5090742;28;20089;-58
2022/07/22 07:26:13;;;;;;;4.18;3.45;;;24.00;72.70;;;;;;5091834;28;22970;-58
2022/07/22 07:28:39;;;;;;;3.85;2.95;;;24.00;72.80;;;;;;5093119;28;20645;-58
2022/07/22 07:31:05;;;;;;;3.30;2.90;;;24.00;72.50;;;;;;5086507;28;20042;-58
2022/07/22 07:33:30;;;;;;;3.03;2.72;;;24.00;72.50;;;;;;5084823;28;20079;-57
2022/07/22 07:35:57;;;;;;;3.30;2.92;;;24.00;72.20;;;;;;5091035;28;20027;-57
2022/07/22 07:38:23;;;;;;;3.10;2.80;;;23.90;72.20;;;;;;5084612;28;20657;-57
2022/07/22 07:40:48;;;;;;;3.55;2.67;;;23.90;72.50;;;;;;5088361;28;20034;-58
2022/07/22 07:43:14;;;;;;;3.08;2.78;;;23.90;72.50;;;;;;5089915;28;20092;-58
2022/07/22 07:45:40;;;;;;;3.05;2.75;;;23.90;72.40;;;;;;5098006;28;20038;-57
2022/07/22 07:48:06;;;;;;;3.90;3.20;;;23.80;72.40;;;;;;5089170;28;20035;-59
2022/07/22 07:50:32;;;;;;;3.08;2.78;;;23.80;72.00;;;;;;5086658;28;20048;-58
2022/07/22 07:52:58;;;;;;;3.08;2.72;;;23.80;72.10;;;;;;5087303;28;20470;-57
2022/07/22 07:55:24;;;;;;;3.75;2.85;;;23.80;72.20;;;;;;5091074;28;20038;-58
2022/07/22 07:57:50;;;;;;;4.22;3.13;;;23.80;72.30;;;;;;5092635;28;20038;-58
2022/07/22 08:00:20;;;;;;;3.95;3.20;;;23.80;72.10;;;;;;5088739;28;20983;-58
2022/07/22 08:02:46;;;;;;;3.33;2.95;;;23.80;72.10;;;;;;5089650;28;20383;-58
2022/07/22 08:05:12;;;;;;;2.85;2.60;;;23.80;71.90;;;;;;5093457;28;20024;-57
2022/07/22 08:07:38;;;;;;;2.80;2.58;;;23.70;71.70;;;;;;5092501;28;20039;-59
2022/07/22 08:10:07;;;;;;;4.35;3.03;;;23.80;72.30;;;;;;5085936;27;20073;-59
2022/07/22 08:12:33;;;;;;;2.80;2.60;;;23.70;71.50;;;;;;5092542;27;20138;-58
2022/07/22 08:14:59;;;;;;;3.15;2.85;;;23.80;71.60;;;;;;5088417;27;20024;-59
2022/07/22 08:17:24;;;;;;;2.60;2.40;;;23.80;72.10;;;;;;5089163;27;20479;-58
2022/07/22 08:19:50;;;;;;;3.28;2.67;;;23.80;71.40;;;;;;5088055;27;20031;-57
2022/07/22 08:22:16;;;;;;;2.72;2.50;;;23.90;71.50;;;;;;5092417;27;20035;-58
2022/07/22 08:24:42;;;;;;;3.03;2.58;;;24.00;71.20;;;;;;5091073;27;20422;-57
2022/07/22 08:27:07;;;;;;;3.20;2.88;;;24.10;70.90;;;;;;5086449;27;20028;-59
2022/07/22 08:29:33;;;;;;;3.13;2.72;;;24.10;70.80;;;;;;5085850;27;20042;-58
2022/07/22 08:31:59;;;;;;;2.95;2.67;;;24.10;70.50;;;;;;5079129;27;20105;-58
2022/07/22 08:34:24;;;;;;;2.97;2.67;;;24.20;70.40;;;;;;5084197;28;20107;-58
2022/07/22 08:36:50;;;;;;;3.85;2.63;;;24.20;70.00;;;;;;5084013;27;20043;-57
2022/07/22 08:39:16;;;;;;;2.90;2.60;;;24.20;70.10;;;;;;5082934;27;21087;-56
2022/07/22 08:41:42;;;;;;;2.67;2.47;;;24.20;70.30;;;;;;5093642;27;20036;-59
2022/07/22 08:44:09;;;;;;;3.20;2.47;;;24.20;70.50;;;;;;5090170;27;20076;-60
2022/07/22 08:46:36;;;;;;;2.83;2.35;;;24.20;70.40;;;;;;5086089;27;20084;-57
2022/07/22 08:49:06;;;;;;;5.05;2.42;;;24.30;70.50;;;;;;5086251;27;20483;-59
2022/07/22 08:51:33;;;;;;;2.60;2.40;;;24.30;70.10;;;;;;5076176;27;20063;-59
2022/07/22 08:53:58;;;;;;;2.65;2.45;;;24.40;69.40;;;;;;5076913;27;20144;-57
2022/07/22 08:56:24;;;;;;;2.53;2.25;;;24.40;68.80;;;;;;5088910;27;20031;-58
2022/07/22 08:58:50;;;;;;;2.13;2.03;;;24.50;68.60;;;;;;5083025;27;20477;-59
2022/07/22 09:01:17;;;;;;;2.22;2.10;;;24.50;67.90;;;;;;5091823;27;20029;-58
2022/07/22 09:03:51;;;;;;;2.70;2.50;;;24.50;67.50;;;;;;5079147;27;20065;-56
2022/07/22 09:06:20;;;;;;;2.50;2.30;;;24.40;67.20;;;;;;5079387;27;20035;-58
2022/07/22 09:08:56;;;;;;;2.28;2.10;;;24.40;67.20;;;;;;5078037;27;20029;-58
2022/07/22 09:11:24;;;;;;;2.20;2.05;;;24.30;67.30;;;;;;5082813;28;20527;-57
2022/07/22 09:13:50;;;;;;;2.28;2.08;;;24.30;67.50;;;;;;5078626;27;20020;-58
2022/07/22 09:16:16;;;;;;;3.17;2.50;;;24.20;67.50;;;;;;5084844;27;20110;-58
2022/07/22 09:18:54;;;;;;;2.42;2.22;;;24.20;67.70;;;;;;5090753;27;20042;-59
2022/07/22 09:21:21;;;;;;;2.92;2.00;;;24.20;67.50;;;;;;5095546;27;20028;-58
2022/07/22 09:23:47;;;;;;;3.08;2.13;;;24.20;67.60;;;;;;5089936;27;20038;-58
2022/07/22 09:26:33;;;;;;;2.00;1.90;;;24.20;67.50;;;;;;5085403;27;20027;-58
2022/07/22 09:29:00;;;;;;;2.30;2.10;;;24.10;67.60;;;;;;5084871;27;20026;-58
2022/07/22 09:31:36;;;;;;;2.65;2.40;;;24.10;67.70;;;;;;5081335;27;20031;-58
2022/07/22 09:34:04;;;;;;;2.92;2.13;;;24.10;67.50;;;;;;5084786;28;20028;-58
2022/07/22 09:36:31;;;;;;;2.20;2.05;;;24.10;67.40;;;;;;5087314;27;20479;-56
2022/07/22 09:38:57;;;;;;;2.83;2.20;;;24.00;66.90;;;;;;5092955;27;20024;-58
2022/07/22 09:41:23;;;;;;;2.28;2.13;;;24.00;66.70;;;;;;5081933;27;20811;-58
2022/07/22 09:43:50;;;;;;;2.92;2.33;;;24.00;66.70;;;;;;5080878;27;20043;-57
2022/07/22 09:46:16;;;;;;;2.40;2.17;;;24.00;66.90;;;;;;5085589;27;20044;-58
2022/07/22 09:48:43;;;;;;;2.28;2.17;;;23.90;67.20;;;;;;5093785;27;20038;-58
2022/07/22 09:51:08;;;;;;;2.40;2.20;;;23.90;67.10;;;;;;5092043;27;20146;-58
2022/07/22 09:53:35;;;;;;;2.78;2.30;;;23.90;66.90;;;;;;5083158;27;20027;-57
2022/07/22 09:56:04;;;;;;;2.30;2.10;;;23.90;66.90;;;;;;5081062;27;20028;-56
2022/07/22 09:58:30;;;;;;;2.45;2.13;;;23.90;66.70;;;;;;5085735;27;20043;-57
2022/07/22 10:00:59;;;;;;;2.30;2.10;;;23.90;66.60;;;;;;5085227;27;20052;-58
2022/07/22 10:03:36;;;;;;;2.45;2.20;;;23.90;66.50;;;;;;5081815;27;20016;-58
2022/07/22 10:06:03;;;;;;;3.15;2.55;;;23.90;66.80;;;;;;5084184;27;20027;-56
2022/07/22 10:08:31;;;;;;;2.30;2.15;;;23.90;66.70;;;;;;5082417;27;20084;-57
2022/07/22 10:11:00;;;;;;;2.30;2.10;;;23.90;66.50;;;;;;5081750;27;20039;-56
2022/07/22 10:13:27;;;;;;;1.90;1.77;;;23.90;66.40;;;;;;5074457;27;20055;-57
2022/07/22 10:15:54;;;;;;;2.00;1.90;;;23.90;66.40;;;;;;5076754;27;20035;-56
2022/07/22 10:18:21;;;;;;;2.33;2.13;;;23.90;66.30;;;;;;5081316;27;20114;-57
2022/07/22 10:20:46;;;;;;;2.40;2.20;;;24.00;66.30;;;;;;5085299;27;20102;-57
2022/07/22 10:23:13;;;;;;;3.42;2.03;;;24.00;66.30;;;;;;5082049;27;20756;-57
2022/07/22 10:25:50;;;;;;;1.95;1.85;;;24.00;66.30;;;;;;5073169;27;20356;-57
2022/07/22 10:28:34;;;;;;;2.25;2.05;;;24.00;66.10;;;;;;5081918;27;20109;-55
2022/07/22 10:31:18;;;;;;;2.25;2.15;;;24.00;66.30;;;;;;5085561;27;20028;-56
2022/07/22 10:33:49;;;;;;;2.40;2.20;;;24.10;66.60;;;;;;5089206;27;20034;-57
2022/07/22 10:36:30;;;;;;;1.50;1.40;;;24.20;66.20;;;;;;5094523;27;20402;-56
2022/07/22 10:39:10;;;;;;;2.10;2.00;;;24.20;65.90;;;;;;5086746;28;20515;-57
2022/07/22 10:41:40;;;;;;;1.90;1.77;;;24.20;65.40;;;;;;5095207;27;20836;-56
2022/07/22 10:44:06;;;;;;;2.42;2.22;;;24.20;65.50;;;;;;5089710;27;20032;-57
2022/07/22 10:46:51;;;;;;;2.10;1.92;;;24.30;65.30;;;;;;5088392;27;21081;-57
2022/07/22 10:49:20;;;;;;;2.10;2.00;;;24.30;64.90;;;;;;5092891;27;20115;-57
2022/07/22 10:52:25;;;;;;;3.00;2.00;;;24.30;64.80;;;;;;5088389;27;20042;-58
2022/07/22 10:55:17;;;;;;;3.30;2.60;;;24.30;64.30;;;;;;5088822;27;20024;-57
2022/07/22 10:57:43;;;;;;;2.17;2.08;;;24.30;64.90;;;;;;5090628;27;20468;-57
2022/07/22 11:00:09;;;;;;;2.40;2.20;;;24.30;65.10;;;;;;5086610;27;20038;-58
2022/07/22 11:02:37;;;;;;;2.22;1.98;;;24.30;65.30;;;;;;5084447;28;20039;-57
2022/07/22 11:05:03;;;;;;;3.08;2.13;;;24.30;65.30;;;;;;5080763;28;20839;-60
2022/07/22 11:07:31;;;;;;;2.28;2.08;;;24.30;64.80;;;;;;5083794;28;20031;-58
2022/07/22 11:10:15;;;;;;;1.92;1.80;;;24.30;64.80;;;;;;5069700;28;20443;-57
2022/07/22 11:12:41;;;;;;;1.90;1.80;;;24.30;65.10;;;;;;5090721;28;20612;-58
2022/07/22 11:15:08;;;;;;;1.90;1.80;;;24.30;65.30;;;;;;5088931;28;20022;-58
2022/07/22 11:17:36;;;;;;;1.70;1.60;;;24.30;65.40;;;;;;5085964;28;20050;-58
2022/07/22 11:20:07;;;;;;;2.13;1.92;;;24.30;65.00;;;;;;5079297;28;20020;-58
2022/07/22 11:22:33;;;;;;;2.20;2.00;;;24.30;64.80;;;;;;5079134;28;20028;-56
2022/07/22 11:25:05;;;;;;;2.92;2.00;;;24.30;64.40;;;;;;5082309;28;20392;-58
2022/07/22 11:27:31;;;;;;;1.83;1.73;;;24.30;64.30;;;;;;5084217;28;20110;-59
2022/07/22 11:29:57;;;;;;;1.88;1.77;;;24.30;64.30;;;;;;5085890;28;20154;-58
2022/07/22 11:32:27;;;;;;;1.73;1.63;;;24.30;64.40;;;;;;5080021;28;20024;-58
2022/07/22 11:34:53;;;;;;;1.40;1.40;;;24.30;64.70;;;;;;5089790;28;20123;-57
2022/07/22 11:37:23;;;;;;;2.13;2.00;;;24.40;64.90;;;;;;5079816;28;21149;-57
2022/07/22 11:39:50;;;;;;;2.00;1.80;;;24.40;64.90;;;;;;5087031;28;20047;-56
2022/07/22 11:42:17;;;;;;;2.08;1.88;;;24.50;64.70;;;;;;5080093;28;20448;-57
2022/07/22 11:44:43;;;;;;;2.00;1.85;;;24.50;64.80;;;;;;5081878;27;20035;-57
2022/07/22 11:47:09;;;;;;;2.53;2.05;;;24.60;64.70;;;;;;5076136;28;20426;-57
2022/07/22 11:49:37;;;;;;;1.90;1.80;;;24.60;64.60;;;;;;5089776;27;20134;-58
2022/07/22 11:52:11;;;;;;;2.30;2.10;;;24.60;64.50;;;;;;5090326;27;20114;-59
2022/07/22 11:54:39;;;;;;;1.75;1.63;;;24.60;64.80;;;;;;5094831;27;20024;-58
2022/07/22 11:57:05;;;;;;;2.05;1.90;;;24.60;64.80;;;;;;5092334;27;20143;-59
2022/07/22 11:59:30;;;;;;;1.77;1.67;;;24.60;64.90;;;;;;5095354;27;20039;-57
2022/07/22 12:01:56;;;;;;;1.73;1.63;;;24.60;64.80;;;;;;5090953;27;20055;-57
2022/07/22 12:04:24;;;;;;;1.73;1.55;;;24.60;64.70;;;;;;5092694;27;20032;-58
2022/07/22 12:06:53;;;;;;;2.05;1.95;;;24.60;64.60;;;;;;5087853;27;20736;-58
2022/07/22 12:09:19;;;;;;;1.98;1.88;;;24.60;64.10;;;;;;5086720;27;20028;-59
2022/07/22 12:11:48;;;;;;;1.95;1.85;;;24.60;63.90;;;;;;5074134;27;20043;-57
2022/07/22 12:14:15;;;;;;;1.60;1.50;;;24.60;63.90;;;;;;5084239;27;20760;-59
2022/07/22 12:16:42;;;;;;;1.80;1.70;;;24.60;63.80;;;;;;5090657;27;20055;-58
2022/07/22 12:19:13;;;;;;;1.58;1.48;;;24.50;63.80;;;;;;5090369;27;20043;-58
2022/07/22 12:22:00;;;;;;;2.55;1.70;;;24.50;63.90;;;;;;5083648;27;20035;-60
2022/07/22 12:24:37;;;;;;;1.40;1.30;;;24.50;63.60;;;;;;5083904;27;20487;-57
2022/07/22 12:27:02;;;;;;;1.90;1.52;;;24.50;63.90;;;;;;5083908;27;20082;-60
2022/07/22 12:29:37;;;;;;;1.80;1.70;;;24.40;64.20;;;;;;5083603;27;20181;-59
2022/07/22 12:32:17;;;;;;;1.30;1.30;;;24.40;64.90;;;;;;5080037;27;20024;-60
2022/07/22 12:34:57;;;;;;;2.15;1.92;;;24.50;64.40;;;;;;5082606;27;20042;-58
2022/07/22 12:37:22;;;;;;;1.73;1.63;;;24.50;64.10;;;;;;5086733;27;20047;-58
2022/07/22 12:40:05;;;;;;;1.67;1.58;;;24.50;64.10;;;;;;5084874;27;20054;-57
2022/07/22 12:42:43;;;;;;;2.08;1.70;;;24.50;64.30;;;;;;5088673;28;20395;-59
2022/07/22 12:45:08;;;;;;;1.50;1.42;;;24.50;64.60;;;;;;5085058;27;20439;-59
2022/07/22 12:47:55;;;;;;;1.35;1.25;;;24.50;64.50;;;;;;5079866;27;20039;-59